sensor_id;sensor_type;location;lat;lon;timestamp;pressure;altitude;pressure_sealevel;temperature;humidity
69127;BME280;56688;50.234;19.292;2022-08-02T00:00:10;98540.58;;;19.28;81.35
69127;BME280;56688;50.234;19.292;2022-08-02T00:02:40;98538.85;;;19.23;81.56
69127;BME280;56688;50.234;19.292;2022-08-02T00:05:08;98538.13;;;19.21;81.80
69127;BME280;56688;50.234;19.292;2022-08-02T00:07:35;98531.94;;;19.21;81.81
69127;BME280;56688;50.234;19.292;2022-08-02T00:10:09;98532.05;;;19.20;81.82
69127;BME280;56688;50.234;19.292;2022-08-02T00:12:37;98532.46;;;19.19;81.95
69127;BME280;56688;50.234;19.292;2022-08-02T00:15:06;98527.37;;;19.16;81.82
69127;BME280;56688;50.234;19.292;2022-08-02T00:17:33;98526.63;;;19.14;81.79
69127;BME280;56688;50.234;19.292;2022-08-02T00:20:00;98530.58;;;19.11;81.73
69127;BME280;56688;50.234;19.292;2022-08-02T00:22:28;98535.16;;;19.09;81.82
69127;BME280;56688;50.234;19.292;2022-08-02T00:24:54;98533.05;;;19.08;81.80
69127;BME280;56688;50.234;19.292;2022-08-02T00:27:21;98536.73;;;19.07;81.84
69127;BME280;56688;50.234;19.292;2022-08-02T00:29:48;98536.17;;;19.06;81.79
69127;BME280;56688;50.234;19.292;2022-08-02T00:32:20;98538.22;;;19.05;81.72
69127;BME280;56688;50.234;19.292;2022-08-02T00:34:48;98539.40;;;19.02;81.49
69127;BME280;56688;50.234;19.292;2022-08-02T00:37:16;98548.27;;;18.99;81.51
69127;BME280;56688;50.234;19.292;2022-08-02T00:39:43;98555.91;;;18.96;81.66
69127;BME280;56688;50.234;19.292;2022-08-02T00:42:13;98555.25;;;18.93;81.67
69127;BME280;56688;50.234;19.292;2022-08-02T00:44:41;98554.06;;;18.90;81.55
69127;BME280;56688;50.234;19.292;2022-08-02T00:47:08;98556.11;;;18.90;81.50
69127;BME280;56688;50.234;19.292;2022-08-02T00:49:35;98557.51;;;18.89;81.23
69127;BME280;56688;50.234;19.292;2022-08-02T00:52:03;98558.45;;;18.87;81.28
69127;BME280;56688;50.234;19.292;2022-08-02T00:54:30;98558.40;;;18.82;81.12
69127;BME280;56688;50.234;19.292;2022-08-02T00:56:57;98554.98;;;18.79;81.31
69127;BME280;56688;50.234;19.292;2022-08-02T00:59:24;98560.88;;;18.77;81.72
69127;BME280;56688;50.234;19.292;2022-08-02T01:01:51;98562.90;;;18.72;82.04
69127;BME280;56688;50.234;19.292;2022-08-02T01:04:24;98563.60;;;18.70;82.59
69127;BME280;56688;50.234;19.292;2022-08-02T01:06:57;98559.48;;;18.70;82.96
69127;BME280;56688;50.234;19.292;2022-08-02T01:09:25;98562.84;;;18.71;83.04
69127;BME280;56688;50.234;19.292;2022-08-02T01:11:52;98564.83;;;18.74;83.07
69127;BME280;56688;50.234;19.292;2022-08-02T01:14:20;98556.71;;;18.69;83.03
69127;BME280;56688;50.234;19.292;2022-08-02T01:17:02;98570.34;;;18.76;83.00
69127;BME280;56688;50.234;19.292;2022-08-02T01:25:49;98583.63;;;18.75;83.52
69127;BME280;56688;50.234;19.292;2022-08-02T01:28:45;98579.27;;;18.78;83.81
69127;BME280;56688;50.234;19.292;2022-08-02T01:31:28;98575.52;;;18.80;83.47
69127;BME280;56688;50.234;19.292;2022-08-02T01:34:15;98578.82;;;18.80;83.45
69127;BME280;56688;50.234;19.292;2022-08-02T01:36:57;98578.91;;;18.79;83.65
69127;BME280;56688;50.234;19.292;2022-08-02T01:39:29;98584.30;;;18.80;83.45
69127;BME280;56688;50.234;19.292;2022-08-02T01:42:00;98583.08;;;18.81;83.58
69127;BME280;56688;50.234;19.292;2022-08-02T01:44:31;98585.77;;;18.84;83.57
69127;BME280;56688;50.234;19.292;2022-08-02T01:47:02;98587.73;;;18.85;83.61
69127;BME280;56688;50.234;19.292;2022-08-02T01:49:31;98594.34;;;18.90;83.57
69127;BME280;56688;50.234;19.292;2022-08-02T01:52:00;98595.44;;;18.94;83.44
69127;BME280;56688;50.234;19.292;2022-08-02T01:54:44;98599.69;;;18.98;83.37
69127;BME280;56688;50.234;19.292;2022-08-02T01:57:13;98593.14;;;18.98;83.22
69127;BME280;56688;50.234;19.292;2022-08-02T01:59:43;98591.57;;;18.98;83.16
69127;BME280;56688;50.234;19.292;2022-08-02T02:02:11;98589.95;;;19.01;83.02
69127;BME280;56688;50.234;19.292;2022-08-02T02:04:41;98590.03;;;19.02;83.00
69127;BME280;56688;50.234;19.292;2022-08-02T02:07:12;98582.68;;;19.02;82.97
69127;BME280;56688;50.234;19.292;2022-08-02T02:09:42;98581.88;;;19.06;82.95
69127;BME280;56688;50.234;19.292;2022-08-02T02:12:17;98584.35;;;19.10;82.91
69127;BME280;56688;50.234;19.292;2022-08-02T02:14:46;98585.34;;;19.11;82.48
69127;BME280;56688;50.234;19.292;2022-08-02T02:17:19;98587.47;;;19.07;82.42
69127;BME280;56688;50.234;19.292;2022-08-02T02:20:12;98592.83;;;19.07;82.35
69127;BME280;56688;50.234;19.292;2022-08-02T02:22:40;98591.53;;;19.03;82.24
69127;BME280;56688;50.234;19.292;2022-08-02T02:25:08;98591.66;;;19.02;82.55
69127;BME280;56688;50.234;19.292;2022-08-02T02:27:40;98592.27;;;19.03;82.62
69127;BME280;56688;50.234;19.292;2022-08-02T02:30:10;98592.02;;;19.07;82.63
69127;BME280;56688;50.234;19.292;2022-08-02T02:32:39;98592.16;;;19.10;82.40
69127;BME280;56688;50.234;19.292;2022-08-02T02:35:07;98593.98;;;19.09;82.17
69127;BME280;56688;50.234;19.292;2022-08-02T02:37:37;98597.58;;;19.09;81.96
69127;BME280;56688;50.234;19.292;2022-08-02T02:40:06;98595.92;;;19.07;82.09
69127;BME280;56688;50.234;19.292;2022-08-02T02:42:34;98599.33;;;19.07;81.94
69127;BME280;56688;50.234;19.292;2022-08-02T02:45:02;98597.44;;;19.07;82.03
69127;BME280;56688;50.234;19.292;2022-08-02T02:47:31;98602.95;;;19.07;82.11
69127;BME280;56688;50.234;19.292;2022-08-02T02:50:08;98598.89;;;19.03;82.09
69127;BME280;56688;50.234;19.292;2022-08-02T02:52:38;98600.24;;;19.03;82.09
69127;BME280;56688;50.234;19.292;2022-08-02T02:55:07;98597.36;;;19.05;82.32
69127;BME280;56688;50.234;19.292;2022-08-02T02:57:36;98601.55;;;19.03;82.17
69127;BME280;56688;50.234;19.292;2022-08-02T03:00:07;98597.02;;;19.00;82.13
69127;BME280;56688;50.234;19.292;2022-08-02T03:02:36;98599.20;;;18.93;82.25
69127;BME280;56688;50.234;19.292;2022-08-02T03:05:06;98603.29;;;18.91;82.18
69127;BME280;56688;50.234;19.292;2022-08-02T03:07:33;98601.37;;;18.84;82.48
69127;BME280;56688;50.234;19.292;2022-08-02T03:10:03;98599.94;;;18.80;82.61
69127;BME280;56688;50.234;19.292;2022-08-02T03:12:33;98600.82;;;18.79;82.84
69127;BME280;56688;50.234;19.292;2022-08-02T03:15:04;98598.94;;;18.82;83.08
69127;BME280;56688;50.234;19.292;2022-08-02T03:17:41;98595.39;;;18.86;83.19
69127;BME280;56688;50.234;19.292;2022-08-02T03:20:11;98599.94;;;18.92;82.98
69127;BME280;56688;50.234;19.292;2022-08-02T03:22:39;98595.25;;;18.93;82.74
69127;BME280;56688;50.234;19.292;2022-08-02T03:25:07;98598.31;;;18.94;82.59
69127;BME280;56688;50.234;19.292;2022-08-02T03:27:34;98599.63;;;18.92;82.43
69127;BME280;56688;50.234;19.292;2022-08-02T03:30:03;98602.23;;;18.89;82.47
69127;BME280;56688;50.234;19.292;2022-08-02T03:32:32;98601.73;;;18.85;82.63
69127;BME280;56688;50.234;19.292;2022-08-02T03:34:59;98603.74;;;18.84;82.86
69127;BME280;56688;50.234;19.292;2022-08-02T03:37:28;98606.30;;;18.85;83.03
69127;BME280;56688;50.234;19.292;2022-08-02T03:39:57;98608.83;;;18.86;83.14
69127;BME280;56688;50.234;19.292;2022-08-02T03:42:25;98613.83;;;18.87;83.24
69127;BME280;56688;50.234;19.292;2022-08-02T03:44:54;98616.55;;;18.86;82.91
69127;BME280;56688;50.234;19.292;2022-08-02T03:47:23;98619.99;;;18.86;83.04
69127;BME280;56688;50.234;19.292;2022-08-02T03:49:50;98618.92;;;18.86;83.07
69127;BME280;56688;50.234;19.292;2022-08-02T03:52:18;98622.39;;;18.87;83.09
69127;BME280;56688;50.234;19.292;2022-08-02T03:54:45;98623.45;;;18.86;83.16
69127;BME280;56688;50.234;19.292;2022-08-02T03:57:12;98624.98;;;18.86;83.13
69127;BME280;56688;50.234;19.292;2022-08-02T03:59:41;98627.33;;;18.85;83.28
69127;BME280;56688;50.234;19.292;2022-08-02T04:02:09;98628.89;;;18.87;83.26
69127;BME280;56688;50.234;19.292;2022-08-02T04:04:36;98628.81;;;18.89;83.20
69127;BME280;56688;50.234;19.292;2022-08-02T04:07:04;98631.04;;;18.89;83.12
69127;BME280;56688;50.234;19.292;2022-08-02T04:09:33;98633.23;;;18.91;82.94
69127;BME280;56688;50.234;19.292;2022-08-02T04:12:00;98637.48;;;18.92;82.91
69127;BME280;56688;50.234;19.292;2022-08-02T04:14:27;98636.56;;;18.97;82.86
69127;BME280;56688;50.234;19.292;2022-08-02T04:17:05;98639.11;;;18.97;82.69
69127;BME280;56688;50.234;19.292;2022-08-02T04:19:38;98643.64;;;18.96;82.62
69127;BME280;56688;50.234;19.292;2022-08-02T04:22:13;98640.98;;;18.96;82.45
69127;BME280;56688;50.234;19.292;2022-08-02T04:24:44;98644.77;;;18.96;82.37
69127;BME280;56688;50.234;19.292;2022-08-02T04:27:16;98650.40;;;18.99;82.44
69127;BME280;56688;50.234;19.292;2022-08-02T04:30:05;98652.28;;;19.03;82.39
69127;BME280;56688;50.234;19.292;2022-08-02T04:32:33;98661.48;;;19.10;82.40
69127;BME280;56688;50.234;19.292;2022-08-02T04:35:01;98660.60;;;19.18;82.17
69127;BME280;56688;50.234;19.292;2022-08-02T04:37:45;98665.95;;;19.25;81.64
69127;BME280;56688;50.234;19.292;2022-08-02T04:40:32;98662.06;;;19.31;81.40
69127;BME280;56688;50.234;19.292;2022-08-02T04:42:59;98664.83;;;19.33;81.03
69127;BME280;56688;50.234;19.292;2022-08-02T04:45:28;98668.69;;;19.37;80.96
69127;BME280;56688;50.234;19.292;2022-08-02T04:47:56;98672.67;;;19.41;80.73
69127;BME280;56688;50.234;19.292;2022-08-02T04:50:32;98669.27;;;19.48;80.78
69127;BME280;56688;50.234;19.292;2022-08-02T04:52:59;98667.09;;;19.56;80.47
69127;BME280;56688;50.234;19.292;2022-08-02T04:55:25;98667.69;;;19.58;80.16
69127;BME280;56688;50.234;19.292;2022-08-02T04:57:55;98670.31;;;19.61;80.05
69127;BME280;56688;50.234;19.292;2022-08-02T05:00:24;98672.38;;;19.64;80.33
69127;BME280;56688;50.234;19.292;2022-08-02T05:02:52;98669.80;;;19.72;80.31
69127;BME280;56688;50.234;19.292;2022-08-02T05:05:19;98665.82;;;19.77;80.27
69127;BME280;56688;50.234;19.292;2022-08-02T05:07:47;98668.27;;;19.84;79.91
69127;BME280;56688;50.234;19.292;2022-08-02T05:10:14;98667.80;;;19.90;79.28
69127;BME280;56688;50.234;19.292;2022-08-02T05:12:41;98673.89;;;19.94;78.98
69127;BME280;56688;50.234;19.292;2022-08-02T05:15:11;98672.10;;;19.97;78.95
69127;BME280;56688;50.234;19.292;2022-08-02T05:17:39;98674.50;;;20.01;78.51
69127;BME280;56688;50.234;19.292;2022-08-02T05:20:15;98681.23;;;20.04;78.35
69127;BME280;56688;50.234;19.292;2022-08-02T05:22:42;98674.84;;;20.02;78.12
69127;BME280;56688;50.234;19.292;2022-08-02T05:25:09;98680.73;;;20.03;77.64
69127;BME280;56688;50.234;19.292;2022-08-02T05:27:36;98684.50;;;20.02;78.04
69127;BME280;56688;50.234;19.292;2022-08-02T05:30:05;98687.02;;;20.03;77.87
69127;BME280;56688;50.234;19.292;2022-08-02T05:32:32;98687.83;;;20.03;77.93
69127;BME280;56688;50.234;19.292;2022-08-02T05:35:00;98686.96;;;20.07;78.00
69127;BME280;56688;50.234;19.292;2022-08-02T05:37:28;98684.49;;;20.11;77.47
69127;BME280;56688;50.234;19.292;2022-08-02T05:39:58;98687.63;;;20.14;77.15
69127;BME280;56688;50.234;19.292;2022-08-02T05:42:30;98689.74;;;20.18;77.33
69127;BME280;56688;50.234;19.292;2022-08-02T05:44:57;98692.59;;;20.24;76.85
69127;BME280;56688;50.234;19.292;2022-08-02T05:47:24;98699.77;;;20.33;76.81
69127;BME280;56688;50.234;19.292;2022-08-02T05:49:51;98699.62;;;20.45;77.11
69127;BME280;56688;50.234;19.292;2022-08-02T05:52:20;98697.62;;;20.56;76.31
69127;BME280;56688;50.234;19.292;2022-08-02T05:57:26;98704.31;;;20.69;75.16
69127;BME280;56688;50.234;19.292;2022-08-02T06:02:49;98705.22;;;20.67;76.17
69127;BME280;56688;50.234;19.292;2022-08-02T06:05:25;98707.72;;;20.67;76.26
69127;BME280;56688;50.234;19.292;2022-08-02T06:07:54;98713.91;;;20.63;75.55
69127;BME280;56688;50.234;19.292;2022-08-02T06:10:26;98716.50;;;20.58;75.29
69127;BME280;56688;50.234;19.292;2022-08-02T06:13:04;98718.60;;;20.54;75.25
69127;BME280;56688;50.234;19.292;2022-08-02T06:15:33;98723.13;;;20.49;75.47
69127;BME280;56688;50.234;19.292;2022-08-02T06:18:08;98727.33;;;20.41;75.82
69127;BME280;56688;50.234;19.292;2022-08-02T06:20:36;98730.62;;;20.38;76.23
69127;BME280;56688;50.234;19.292;2022-08-02T06:23:06;98734.98;;;20.39;76.32
69127;BME280;56688;50.234;19.292;2022-08-02T06:25:39;98737.86;;;20.32;75.76
69127;BME280;56688;50.234;19.292;2022-08-02T06:28:17;98742.15;;;20.26;75.99
69127;BME280;56688;50.234;19.292;2022-08-02T06:30:45;98743.20;;;20.20;75.82
69127;BME280;56688;50.234;19.292;2022-08-02T06:33:12;98746.61;;;20.15;76.08
69127;BME280;56688;50.234;19.292;2022-08-02T06:38:20;98753.61;;;20.26;75.88
69127;BME280;56688;50.234;19.292;2022-08-02T06:40:55;98756.88;;;20.33;75.52
69127;BME280;56688;50.234;19.292;2022-08-02T06:43:33;98757.31;;;20.43;75.54
69127;BME280;56688;50.234;19.292;2022-08-02T06:46:04;98757.41;;;20.54;75.38
69127;BME280;56688;50.234;19.292;2022-08-02T06:48:51;98758.66;;;20.61;74.59
69127;BME280;56688;50.234;19.292;2022-08-02T06:51:19;98764.52;;;20.74;74.60
69127;BME280;56688;50.234;19.292;2022-08-02T06:53:47;98762.70;;;20.94;73.53
69127;BME280;56688;50.234;19.292;2022-08-02T06:56:14;98761.73;;;21.05;72.35
69127;BME280;56688;50.234;19.292;2022-08-02T06:58:41;98763.98;;;21.15;72.16
69127;BME280;56688;50.234;19.292;2022-08-02T07:01:08;98766.17;;;21.23;71.81
69127;BME280;56688;50.234;19.292;2022-08-02T07:03:36;98767.47;;;21.49;72.24
69127;BME280;56688;50.234;19.292;2022-08-02T07:06:05;98759.93;;;21.88;70.57
69127;BME280;56688;50.234;19.292;2022-08-02T07:08:32;98759.37;;;22.05;69.12
69127;BME280;56688;50.234;19.292;2022-08-02T07:11:02;98757.55;;;22.13;68.74
69127;BME280;56688;50.234;19.292;2022-08-02T07:13:30;98755.36;;;22.10;68.26
69127;BME280;56688;50.234;19.292;2022-08-02T07:16:03;98756.78;;;22.11;68.41
69127;BME280;56688;50.234;19.292;2022-08-02T07:18:30;98756.80;;;22.09;69.18
69127;BME280;56688;50.234;19.292;2022-08-02T07:20:57;98756.59;;;22.18;69.00
69127;BME280;56688;50.234;19.292;2022-08-02T07:23:24;98760.12;;;22.29;68.12
69127;BME280;56688;50.234;19.292;2022-08-02T07:25:50;98757.71;;;22.34;67.82
69127;BME280;56688;50.234;19.292;2022-08-02T07:28:29;98759.58;;;22.37;67.70
69127;BME280;56688;50.234;19.292;2022-08-02T07:30:56;98761.56;;;22.38;67.60
69127;BME280;56688;50.234;19.292;2022-08-02T07:33:23;98764.48;;;22.50;68.12
69127;BME280;56688;50.234;19.292;2022-08-02T07:36:06;98764.90;;;22.60;66.54
69127;BME280;56688;50.234;19.292;2022-08-02T07:38:42;98764.06;;;22.63;66.08
69127;BME280;56688;50.234;19.292;2022-08-02T07:41:11;98758.91;;;22.67;66.23
69127;BME280;56688;50.234;19.292;2022-08-02T07:43:37;98756.49;;;22.77;66.74
69127;BME280;56688;50.234;19.292;2022-08-02T07:46:04;98761.20;;;22.80;65.61
69127;BME280;56688;50.234;19.292;2022-08-02T07:48:31;98760.66;;;22.82;66.13
69127;BME280;56688;50.234;19.292;2022-08-02T07:50:59;98764.39;;;22.88;65.69
69127;BME280;56688;50.234;19.292;2022-08-02T07:53:26;98764.58;;;22.92;65.38
69127;BME280;56688;50.234;19.292;2022-08-02T07:56:13;98761.07;;;22.98;64.76
69127;BME280;56688;50.234;19.292;2022-08-02T07:58:41;98765.55;;;23.07;65.18
69127;BME280;56688;50.234;19.292;2022-08-02T08:01:08;98763.25;;;23.15;64.24
69127;BME280;56688;50.234;19.292;2022-08-02T08:03:36;98763.52;;;23.31;64.78
69127;BME280;56688;50.234;19.292;2022-08-02T08:06:03;98761.15;;;23.60;63.49
69127;BME280;56688;50.234;19.292;2022-08-02T08:08:30;98762.24;;;23.87;62.49
69127;BME280;56688;50.234;19.292;2022-08-02T08:10:57;98758.89;;;24.25;62.28
69127;BME280;56688;50.234;19.292;2022-08-02T08:13:24;98756.16;;;24.71;61.13
69127;BME280;56688;50.234;19.292;2022-08-02T08:15:51;98760.79;;;24.99;60.45
69127;BME280;56688;50.234;19.292;2022-08-02T08:18:19;98767.23;;;25.32;59.92
69127;BME280;56688;50.234;19.292;2022-08-02T08:20:49;98767.17;;;25.48;58.11
69127;BME280;56688;50.234;19.292;2022-08-02T08:23:17;98765.77;;;25.41;57.31
69127;BME280;56688;50.234;19.292;2022-08-02T08:25:44;98764.42;;;25.36;57.60
69127;BME280;56688;50.234;19.292;2022-08-02T08:28:12;98770.61;;;25.35;57.67
69127;BME280;56688;50.234;19.292;2022-08-02T08:30:39;98771.15;;;25.55;57.27
69127;BME280;56688;50.234;19.292;2022-08-02T08:33:08;98769.14;;;25.72;57.09
69127;BME280;56688;50.234;19.292;2022-08-02T08:35:35;98771.20;;;25.87;55.16
69127;BME280;56688;50.234;19.292;2022-08-02T08:38:02;98768.32;;;26.13;54.39
69127;BME280;56688;50.234;19.292;2022-08-02T08:40:33;98766.41;;;26.59;53.97
69127;BME280;56688;50.234;19.292;2022-08-02T08:43:00;98773.53;;;27.12;52.51
69127;BME280;56688;50.234;19.292;2022-08-02T08:45:27;98777.02;;;27.48;50.92
69127;BME280;56688;50.234;19.292;2022-08-02T08:48:00;98776.33;;;27.75;49.37
69127;BME280;56688;50.234;19.292;2022-08-02T08:50:29;98779.98;;;28.01;49.12
69127;BME280;56688;50.234;19.292;2022-08-02T08:55:30;98780.33;;;28.81;46.85
69127;BME280;56688;50.234;19.292;2022-08-02T08:57:59;98784.21;;;28.85;46.33
69127;BME280;56688;50.234;19.292;2022-08-02T09:00:27;98777.19;;;29.08;45.53
69127;BME280;56688;50.234;19.292;2022-08-02T09:02:55;98777.24;;;29.29;45.05
69127;BME280;56688;50.234;19.292;2022-08-02T09:05:23;98766.11;;;29.18;45.08
69127;BME280;56688;50.234;19.292;2022-08-02T09:07:52;98773.23;;;29.02;46.00
69127;BME280;56688;50.234;19.292;2022-08-02T09:13:11;98770.66;;;28.95;46.59
69127;BME280;56688;50.234;19.292;2022-08-02T09:16:03;98782.17;;;29.06;46.57
69127;BME280;56688;50.234;19.292;2022-08-02T09:18:40;98779.02;;;29.49;45.23
69127;BME280;56688;50.234;19.292;2022-08-02T09:21:09;98778.73;;;29.91;44.72
69127;BME280;56688;50.234;19.292;2022-08-02T09:26:08;98778.33;;;30.17;44.07
69127;BME280;56688;50.234;19.292;2022-08-02T09:28:38;98781.60;;;30.21;43.85
69127;BME280;56688;50.234;19.292;2022-08-02T09:31:10;98787.85;;;30.10;43.44
69127;BME280;56688;50.234;19.292;2022-08-02T09:33:40;98788.62;;;29.81;43.73
69127;BME280;56688;50.234;19.292;2022-08-02T09:36:09;98792.80;;;29.45;44.52
69127;BME280;56688;50.234;19.292;2022-08-02T09:38:39;98797.77;;;29.11;45.10
69127;BME280;56688;50.234;19.292;2022-08-02T09:41:19;98794.33;;;28.62;44.93
69127;BME280;56688;50.234;19.292;2022-08-02T09:43:47;98798.89;;;28.01;46.12
69127;BME280;56688;50.234;19.292;2022-08-02T09:46:33;98802.45;;;27.51;48.32
69127;BME280;56688;50.234;19.292;2022-08-02T09:51:37;98798.38;;;27.26;49.17
69127;BME280;56688;50.234;19.292;2022-08-02T09:54:08;98796.36;;;27.24;49.09
69127;BME280;56688;50.234;19.292;2022-08-02T09:56:52;98796.95;;;27.30;50.04
69127;BME280;56688;50.234;19.292;2022-08-02T09:59:21;98792.64;;;27.48;49.03
69127;BME280;56688;50.234;19.292;2022-08-02T10:01:51;98790.80;;;27.60;48.72
69127;BME280;56688;50.234;19.292;2022-08-02T10:04:29;98792.77;;;27.56;49.23
69127;BME280;56688;50.234;19.292;2022-08-02T10:06:57;98793.17;;;27.60;48.35
69127;BME280;56688;50.234;19.292;2022-08-02T10:09:26;98790.23;;;27.48;48.69
69127;BME280;56688;50.234;19.292;2022-08-02T10:11:55;98791.66;;;27.53;49.16
69127;BME280;56688;50.234;19.292;2022-08-02T10:14:24;98789.69;;;27.52;49.63
69127;BME280;56688;50.234;19.292;2022-08-02T10:16:52;98782.56;;;27.67;49.43
69127;BME280;56688;50.234;19.292;2022-08-02T10:19:19;98777.83;;;27.87;48.45
69127;BME280;56688;50.234;19.292;2022-08-02T10:22:11;98781.41;;;28.21;48.01
69127;BME280;56688;50.234;19.292;2022-08-02T10:24:40;98778.41;;;28.55;47.09
69127;BME280;56688;50.234;19.292;2022-08-02T10:27:18;98775.36;;;28.72;45.57
69127;BME280;56688;50.234;19.292;2022-08-02T10:29:48;98775.86;;;28.62;46.01
69127;BME280;56688;50.234;19.292;2022-08-02T10:32:32;98772.94;;;28.80;45.98
69127;BME280;56688;50.234;19.292;2022-08-02T10:35:07;98773.55;;;28.82;46.44
69127;BME280;56688;50.234;19.292;2022-08-02T10:37:54;98770.20;;;29.19;45.80
69127;BME280;56688;50.234;19.292;2022-08-02T10:40:22;98770.96;;;29.58;45.93
69127;BME280;56688;50.234;19.292;2022-08-02T10:42:52;98772.02;;;29.58;42.79
69127;BME280;56688;50.234;19.292;2022-08-02T10:45:21;98770.10;;;29.38;43.94
69127;BME280;56688;50.234;19.292;2022-08-02T10:48:00;98769.39;;;29.46;44.93
69127;BME280;56688;50.234;19.292;2022-08-02T10:53:25;98771.69;;;29.84;43.79
69127;BME280;56688;50.234;19.292;2022-08-02T10:55:55;98770.94;;;29.89;43.60
69127;BME280;56688;50.234;19.292;2022-08-02T10:58:24;98769.89;;;30.10;43.91
69127;BME280;56688;50.234;19.292;2022-08-02T11:00:55;98771.34;;;30.34;42.87
69127;BME280;56688;50.234;19.292;2022-08-02T11:06:03;98773.95;;;30.25;42.87
69127;BME280;56688;50.234;19.292;2022-08-02T11:08:31;98768.60;;;30.13;43.02
69127;BME280;56688;50.234;19.292;2022-08-02T11:10:59;98770.55;;;30.22;43.76
69127;BME280;56688;50.234;19.292;2022-08-02T11:13:27;98773.13;;;30.30;43.03
69127;BME280;56688;50.234;19.292;2022-08-02T11:15:58;98767.64;;;30.45;42.66
69127;BME280;56688;50.234;19.292;2022-08-02T11:23:54;98757.25;;;30.65;42.18
69127;BME280;56688;50.234;19.292;2022-08-02T11:28:58;98754.80;;;31.07;42.20
69127;BME280;56688;50.234;19.292;2022-08-02T11:31:27;98752.98;;;31.48;40.83
69127;BME280;56688;50.234;19.292;2022-08-02T11:33:54;98755.64;;;31.92;40.45
69127;BME280;56688;50.234;19.292;2022-08-02T11:36:21;98753.82;;;32.35;39.04
69127;BME280;56688;50.234;19.292;2022-08-02T11:38:48;98746.84;;;32.72;38.60
69127;BME280;56688;50.234;19.292;2022-08-02T11:41:20;98742.14;;;33.15;38.27
69127;BME280;56688;50.234;19.292;2022-08-02T11:44:07;98743.46;;;33.64;37.22
69127;BME280;56688;50.234;19.292;2022-08-02T11:46:35;98748.44;;;34.04;35.60
69127;BME280;56688;50.234;19.292;2022-08-02T11:49:11;98746.51;;;34.40;34.35
69127;BME280;56688;50.234;19.292;2022-08-02T11:51:50;98744.86;;;34.77;33.94
69127;BME280;56688;50.234;19.292;2022-08-02T11:54:25;98747.79;;;34.72;33.97
69127;BME280;56688;50.234;19.292;2022-08-02T11:56:52;98746.70;;;34.75;34.35
69127;BME280;56688;50.234;19.292;2022-08-02T11:59:19;98740.41;;;34.90;33.95
69127;BME280;56688;50.234;19.292;2022-08-02T12:01:46;98739.77;;;35.19;33.30
69127;BME280;56688;50.234;19.292;2022-08-02T12:04:17;98741.73;;;35.45;32.98
69127;BME280;56688;50.234;19.292;2022-08-02T12:06:57;98741.11;;;35.77;32.15
69127;BME280;56688;50.234;19.292;2022-08-02T12:09:26;98738.66;;;36.13;31.57
69127;BME280;56688;50.234;19.292;2022-08-02T12:11:55;98734.10;;;36.49;32.58
69127;BME280;56688;50.234;19.292;2022-08-02T12:14:24;98735.75;;;36.91;31.43
69127;BME280;56688;50.234;19.292;2022-08-02T12:16:51;98731.86;;;37.28;30.61
69127;BME280;56688;50.234;19.292;2022-08-02T12:19:35;98725.10;;;37.63;29.71
69127;BME280;56688;50.234;19.292;2022-08-02T12:22:19;98722.29;;;37.66;29.36
69127;BME280;56688;50.234;19.292;2022-08-02T12:24:55;98720.38;;;37.66;29.74
69127;BME280;56688;50.234;19.292;2022-08-02T12:29:59;98716.45;;;38.10;29.69
69127;BME280;56688;50.234;19.292;2022-08-02T12:32:28;98710.70;;;38.28;29.20
69127;BME280;56688;50.234;19.292;2022-08-02T12:37:30;98717.29;;;37.40;29.52
69127;BME280;56688;50.234;19.292;2022-08-02T12:39:57;98725.95;;;36.65;30.53
69127;BME280;56688;50.234;19.292;2022-08-02T12:42:24;98730.25;;;35.93;31.75
69127;BME280;56688;50.234;19.292;2022-08-02T12:44:54;98723.41;;;35.22;33.53
69127;BME280;56688;50.234;19.292;2022-08-02T12:47:23;98726.61;;;34.50;33.88
69127;BME280;56688;50.234;19.292;2022-08-02T12:55:32;98721.98;;;33.27;36.88
69127;BME280;56688;50.234;19.292;2022-08-02T12:58:21;98718.90;;;33.29;37.10
69127;BME280;56688;50.234;19.292;2022-08-02T13:00:52;98716.40;;;33.42;35.54
69127;BME280;56688;50.234;19.292;2022-08-02T13:03:20;98718.73;;;33.27;36.00
69127;BME280;56688;50.234;19.292;2022-08-02T13:06:08;98716.34;;;33.13;36.77
69127;BME280;56688;50.234;19.292;2022-08-02T13:08:55;98711.41;;;33.16;36.07
69127;BME280;56688;50.234;19.292;2022-08-02T13:11:24;98713.80;;;33.47;36.46
69127;BME280;56688;50.234;19.292;2022-08-02T13:13:52;98708.45;;;33.91;36.81
69127;BME280;56688;50.234;19.292;2022-08-02T13:16:19;98707.73;;;34.31;35.68
69127;BME280;56688;50.234;19.292;2022-08-02T13:18:57;98704.02;;;34.50;33.74
69127;BME280;56688;50.234;19.292;2022-08-02T13:21:24;98704.14;;;34.72;33.39
69127;BME280;56688;50.234;19.292;2022-08-02T13:24:12;98701.70;;;35.15;32.47
69127;BME280;56688;50.234;19.292;2022-08-02T13:27:01;98705.18;;;35.15;32.40
69127;BME280;56688;50.234;19.292;2022-08-02T13:29:35;98703.62;;;34.65;32.86
69127;BME280;56688;50.234;19.292;2022-08-02T13:32:02;98701.46;;;34.10;33.59
69127;BME280;56688;50.234;19.292;2022-08-02T13:34:29;98704.64;;;33.51;35.19
69127;BME280;56688;50.234;19.292;2022-08-02T13:36:55;98701.25;;;33.09;36.34
69127;BME280;56688;50.234;19.292;2022-08-02T13:39:22;98698.05;;;32.85;38.12
69127;BME280;56688;50.234;19.292;2022-08-02T13:41:49;98695.13;;;32.61;36.72
69127;BME280;56688;50.234;19.292;2022-08-02T13:44:16;98698.04;;;32.26;38.08
69127;BME280;56688;50.234;19.292;2022-08-02T13:46:43;98697.10;;;31.85;38.50
69127;BME280;56688;50.234;19.292;2022-08-02T13:49:12;98705.70;;;31.42;39.09
69127;BME280;56688;50.234;19.292;2022-08-02T13:51:44;98706.48;;;30.95;40.09
69127;BME280;56688;50.234;19.292;2022-08-02T13:54:11;98700.67;;;30.57;40.33
69127;BME280;56688;50.234;19.292;2022-08-02T13:56:38;98705.06;;;30.45;40.99